Time;durP1;ratioP1;P1;durP2;ratioP2;P2;SDS_P1;SDS_P2;PMS_P1;PMS_P2;Temp;Humidity;BMP_temperature;BMP_pressure;BME280_temperature;BME280_humidity;BME280_pressure;Samples;Min_cycle;Max_cycle;Signal;HPM_P1;HPM_P2
2022/03/19 00:00:42;;;;;;;0.00;0.00;;;5.30;99.90;;;;;;5053072;28;20131;-82
2022/03/19 00:03:08;;;;;;;0.00;0.00;;;5.30;99.90;;;;;;5036962;28;20112;-83
2022/03/19 00:05:34;;;;;;;0.00;0.00;;;5.20;99.90;;;;;;5053294;28;20053;-82
2022/03/19 00:08:01;;;;;;;0.00;0.00;;;5.20;99.90;;;;;;5053180;28;20057;-83
2022/03/19 00:10:27;;;;;;;0.00;0.00;;;5.10;99.90;;;;;;5036143;28;20058;-83
2022/03/19 00:12:53;;;;;;;0.10;0.10;;;5.10;99.90;;;;;;5052905;28;20051;-83
2022/03/19 00:15:19;;;;;;;0.00;0.00;;;5.00;99.90;;;;;;5053085;28;20052;-83
2022/03/19 00:17:45;;;;;;;0.63;0.63;;;5.10;99.90;;;;;;5052953;28;20041;-83
2022/03/19 00:20:11;;;;;;;0.75;0.45;;;5.00;99.90;;;;;;5052618;28;20064;-83
2022/03/19 00:22:39;;;;;;;0.00;0.00;;;4.90;99.90;;;;;;5052774;28;20396;-83
2022/03/19 00:25:05;;;;;;;0.00;0.00;;;4.90;99.90;;;;;;5052869;28;20141;-83
2022/03/19 00:27:31;;;;;;;0.10;0.00;;;4.80;99.90;;;;;;5036009;28;20041;-83
2022/03/19 00:29:56;;;;;;;0.00;0.00;;;4.80;99.90;;;;;;5053055;28;20241;-83
2022/03/19 00:32:22;;;;;;;0.00;0.00;;;4.80;99.90;;;;;;5053025;28;20438;-83
2022/03/19 00:34:48;;;;;;;0.00;0.00;;;4.80;99.90;;;;;;5053034;28;20095;-82
2022/03/19 00:37:14;;;;;;;0.00;0.00;;;4.80;99.90;;;;;;5052629;28;20413;-83
2022/03/19 00:39:39;;;;;;;0.88;0.20;;;4.80;99.90;;;;;;5052565;28;20107;-83
2022/03/19 00:42:05;;;;;;;0.10;0.10;;;4.80;99.90;;;;;;5035674;28;20092;-82
2022/03/19 00:44:30;;;;;;;0.00;0.00;;;4.80;99.90;;;;;;5052343;28;20400;-82
2022/03/19 00:46:56;;;;;;;0.15;0.13;;;4.80;99.90;;;;;;5035807;28;20056;-83
2022/03/19 00:49:22;;;;;;;0.08;0.08;;;4.80;99.90;;;;;;5035825;28;20056;-82
2022/03/19 00:51:48;;;;;;;0.00;0.00;;;4.80;99.90;;;;;;5052168;28;20045;-83
2022/03/19 00:54:15;;;;;;;0.00;0.00;;;4.70;99.90;;;;;;5052417;28;20051;-83
2022/03/19 00:56:42;;;;;;;0.00;0.00;;;4.70;99.90;;;;;;5035620;28;20402;-83
2022/03/19 00:59:08;;;;;;;0.00;0.00;;;4.70;99.90;;;;;;5035734;28;20117;-82
2022/03/19 01:01:35;;;;;;;0.00;0.00;;;4.60;99.90;;;;;;5035930;28;20127;-83
2022/03/19 01:04:01;;;;;;;0.80;0.80;;;4.60;99.90;;;;;;5052558;28;20091;-83
2022/03/19 01:06:27;;;;;;;0.00;0.00;;;4.50;99.90;;;;;;5052714;28;20484;-83
2022/03/19 01:08:52;;;;;;;0.00;0.00;;;4.50;99.90;;;;;;5052909;28;20087;-83
2022/03/19 01:11:23;;;;;;;0.00;0.00;;;4.50;99.90;;;;;;5056203;28;20049;-83
2022/03/19 01:13:52;;;;;;;0.00;0.00;;;4.60;99.90;;;;;;5040371;28;20099;-82
2022/03/19 01:16:19;;;;;;;0.28;0.22;;;4.60;99.90;;;;;;5056331;28;20419;-83
2022/03/19 01:18:51;;;;;;;0.08;0.00;;;4.60;99.90;;;;;;5039688;28;20449;-83
2022/03/19 01:21:17;;;;;;;1.15;0.15;;;4.60;99.90;;;;;;5039595;28;20477;-83
2022/03/19 01:23:43;;;;;;;0.10;0.10;;;4.60;99.90;;;;;;5056551;28;20045;-82
2022/03/19 01:26:09;;;;;;;0.00;0.00;;;4.60;99.90;;;;;;5056598;28;20037;-83
2022/03/19 01:28:35;;;;;;;0.20;0.20;;;4.60;99.90;;;;;;5056339;28;20049;-83
2022/03/19 01:31:02;;;;;;;0.35;0.10;;;4.60;99.90;;;;;;5056322;28;20055;-83
2022/03/19 01:33:28;;;;;;;0.00;0.00;;;4.60;99.90;;;;;;5039869;28;20041;-83
2022/03/19 01:35:54;;;;;;;0.00;0.00;;;4.70;99.90;;;;;;5056406;28;20503;-83
2022/03/19 01:38:19;;;;;;;0.00;0.00;;;4.60;99.90;;;;;;5039679;28;20052;-82
2022/03/19 01:40:45;;;;;;;0.10;0.03;;;4.60;99.90;;;;;;5056485;28;20053;-83
2022/03/19 01:43:11;;;;;;;0.10;0.10;;;4.60;99.90;;;;;;5055792;28;20122;-83
2022/03/19 01:45:37;;;;;;;0.00;0.00;;;4.60;99.90;;;;;;5040098;28;20061;-83
2022/03/19 01:48:03;;;;;;;0.50;0.10;;;4.60;99.90;;;;;;5039531;28;20045;-83
2022/03/19 01:50:29;;;;;;;0.47;0.05;;;4.60;99.90;;;;;;5039551;28;20049;-82
2022/03/19 01:52:56;;;;;;;0.00;0.00;;;4.60;99.90;;;;;;5039182;28;20148;-83
2022/03/19 01:55:24;;;;;;;0.28;0.28;;;4.60;99.90;;;;;;5055841;28;20049;-83
2022/03/19 01:57:51;;;;;;;0.20;0.20;;;4.60;99.90;;;;;;5039405;28;20100;-83
2022/03/19 02:00:22;;;;;;;0.00;0.00;;;4.60;99.90;;;;;;5055758;28;20045;-82
2022/03/19 02:02:50;;;;;;;0.00;0.00;;;4.60;99.90;;;;;;5039064;28;20041;-82
2022/03/19 02:05:23;;;;;;;0.03;0.00;;;4.60;99.90;;;;;;5055526;28;20527;-83
2022/03/19 02:07:49;;;;;;;0.32;0.32;;;4.60;99.90;;;;;;5055885;28;20053;-82
2022/03/19 02:10:17;;;;;;;0.00;0.00;;;4.60;99.90;;;;;;5038796;28;20065;-83
2022/03/19 02:12:44;;;;;;;0.00;0.00;;;4.60;99.90;;;;;;5055284;28;20104;-83
2022/03/19 02:15:11;;;;;;;0.10;0.10;;;4.60;99.90;;;;;;5055648;28;20477;-83
2022/03/19 02:17:37;;;;;;;0.00;0.00;;;4.60;99.90;;;;;;5038966;28;20057;-83
2022/03/19 02:20:04;;;;;;;0.00;0.00;;;4.70;99.90;;;;;;5054943;28;20037;-82
2022/03/19 02:22:30;;;;;;;1.45;0.13;;;4.60;99.90;;;;;;5037877;28;20105;-83
2022/03/19 02:27:42;;;;;;;0.00;0.00;;;4.60;99.90;;;;;;5055483;28;20044;-83
2022/03/19 02:30:10;;;;;;;0.10;0.10;;;4.60;99.90;;;;;;5038426;28;20049;-83
2022/03/19 02:32:40;;;;;;;0.05;0.05;;;4.50;99.90;;;;;;5055734;28;20489;-83
2022/03/19 02:35:06;;;;;;;1.75;1.58;;;4.50;99.90;;;;;;5038884;28;20048;-82
2022/03/19 02:37:38;;;;;;;19.27;0.90;;;4.50;99.90;;;;;;5054994;28;20052;-83
2022/03/19 02:40:05;;;;;;;0.00;0.00;;;4.40;99.90;;;;;;5054832;28;20041;-83
2022/03/19 02:42:30;;;;;;;0.00;0.00;;;4.40;99.90;;;;;;5054387;28;20618;-83
2022/03/19 02:44:56;;;;;;;0.08;0.00;;;4.40;99.90;;;;;;5054377;28;20132;-83
2022/03/19 02:47:22;;;;;;;0.00;0.00;;;4.40;99.90;;;;;;5038113;28;20056;-82
2022/03/19 02:49:47;;;;;;;0.00;0.00;;;4.30;99.90;;;;;;5038063;28;20071;-83
2022/03/19 02:52:13;;;;;;;0.00;0.00;;;4.40;99.90;;;;;;5038252;28;20068;-82
2022/03/19 02:54:39;;;;;;;0.00;0.00;;;4.40;99.90;;;;;;5054513;28;20052;-83
2022/03/19 02:57:05;;;;;;;0.00;0.00;;;4.30;99.90;;;;;;5037957;28;20400;-82
2022/03/19 02:59:32;;;;;;;0.00;0.00;;;4.30;99.90;;;;;;5054140;28;20044;-83
2022/03/19 03:02:04;;;;;;;0.52;0.20;;;4.30;99.90;;;;;;5038264;28;20057;-83
2022/03/19 03:04:30;;;;;;;0.00;0.00;;;4.30;99.90;;;;;;5054548;28;20045;-83
2022/03/19 03:07:01;;;;;;;0.00;0.00;;;4.30;99.90;;;;;;5037703;28;20080;-83
2022/03/19 03:09:28;;;;;;;0.10;0.00;;;4.30;99.90;;;;;;5037822;28;20041;-82
2022/03/19 03:11:55;;;;;;;0.00;0.00;;;4.30;99.90;;;;;;5054041;28;20055;-82
2022/03/19 03:14:21;;;;;;;0.17;0.10;;;4.20;99.90;;;;;;5054033;28;20041;-82
2022/03/19 03:16:48;;;;;;;0.00;0.00;;;4.20;99.90;;;;;;5054211;28;20045;-83
2022/03/19 03:19:15;;;;;;;0.00;0.00;;;4.20;99.90;;;;;;5054049;28;20489;-83
2022/03/19 03:21:41;;;;;;;0.00;0.00;;;4.20;99.90;;;;;;5053977;28;20083;-83
2022/03/19 03:24:08;;;;;;;0.20;0.20;;;4.10;99.90;;;;;;5053940;28;20080;-83
2022/03/19 03:26:34;;;;;;;0.00;0.00;;;4.10;99.90;;;;;;5037380;28;20056;-83
2022/03/19 03:29:00;;;;;;;0.20;0.00;;;4.10;99.90;;;;;;5037612;28;20049;-82
2022/03/19 03:31:26;;;;;;;0.00;0.00;;;4.10;99.90;;;;;;5054012;28;20037;-83
2022/03/19 03:33:53;;;;;;;0.00;0.00;;;4.10;99.90;;;;;;5037465;28;20041;-83
2022/03/19 03:36:19;;;;;;;0.00;0.00;;;4.00;99.90;;;;;;5037194;28;20542;-82
2022/03/19 03:38:45;;;;;;;0.10;0.00;;;4.10;99.90;;;;;;5037102;28;20077;-82
2022/03/19 03:41:10;;;;;;;0.00;0.00;;;4.00;99.90;;;;;;5053656;28;20045;-83
2022/03/19 03:43:36;;;;;;;0.00;0.00;;;4.00;99.90;;;;;;5037215;28;20053;-82
2022/03/19 03:46:02;;;;;;;0.00;0.00;;;3.90;99.90;;;;;;5036922;28;20378;-82
2022/03/19 03:48:28;;;;;;;0.00;0.00;;;3.90;99.90;;;;;;5036917;28;20048;-82
2022/03/19 03:50:56;;;;;;;0.20;0.20;;;3.90;99.90;;;;;;5037019;28;20476;-83
2022/03/19 03:53:26;;;;;;;0.28;0.00;;;3.90;99.90;;;;;;5053333;28;20045;-83
2022/03/19 03:55:53;;;;;;;0.00;0.00;;;3.90;99.90;;;;;;5053427;28;20470;-83
2022/03/19 03:58:19;;;;;;;0.05;0.05;;;3.90;99.90;;;;;;5036748;28;20098;-83
2022/03/19 04:00:44;;;;;;;0.00;0.00;;;3.80;99.90;;;;;;5053430;28;20077;-83
2022/03/19 04:03:11;;;;;;;0.00;0.00;;;3.80;99.90;;;;;;5052970;28;20036;-83
2022/03/19 04:05:37;;;;;;;0.00;0.00;;;3.90;99.90;;;;;;5036715;28;20057;-83
2022/03/19 04:08:04;;;;;;;0.00;0.00;;;3.90;99.90;;;;;;5053362;28;20404;-83
2022/03/19 04:10:31;;;;;;;0.00;0.00;;;3.90;99.90;;;;;;5052774;28;20396;-83
2022/03/19 04:12:57;;;;;;;0.00;0.00;;;3.90;99.90;;;;;;5036609;28;20045;-83
2022/03/19 04:15:23;;;;;;;0.80;0.10;;;3.90;99.90;;;;;;5036242;28;20560;-83
2022/03/19 04:17:49;;;;;;;0.00;0.00;;;3.90;99.90;;;;;;5036340;28;20163;-83
2022/03/19 04:20:16;;;;;;;0.30;0.30;;;3.80;99.90;;;;;;5053027;28;20412;-83
2022/03/19 04:22:47;;;;;;;0.03;0.03;;;3.80;99.90;;;;;;5036096;28;20041;-83
2022/03/19 04:25:20;;;;;;;0.00;0.00;;;3.80;99.90;;;;;;5036362;28;20048;-83
2022/03/19 04:27:48;;;;;;;0.00;0.00;;;3.80;99.90;;;;;;5036108;28;20122;-83
2022/03/19 04:30:15;;;;;;;0.90;0.57;;;3.80;99.90;;;;;;5036586;28;20055;-83
2022/03/19 04:32:48;;;;;;;0.20;0.20;;;3.80;99.90;;;;;;5052838;28;20052;-83
2022/03/19 04:38:06;;;;;;;0.00;0.00;;;3.70;99.90;;;;;;5053021;28;20049;-83
2022/03/19 04:40:33;;;;;;;12.50;1.08;;;3.70;99.90;;;;;;5036186;28;20048;-83
2022/03/19 04:42:58;;;;;;;0.40;0.35;;;3.70;99.90;;;;;;5035592;28;20045;-83
2022/03/19 04:45:25;;;;;;;22.25;0.32;;;3.80;99.90;;;;;;5052296;28;20059;-83
2022/03/19 04:47:51;;;;;;;0.30;0.30;;;3.70;99.90;;;;;;5052975;28;20041;-83
2022/03/19 04:50:17;;;;;;;0.03;0.00;;;3.70;99.90;;;;;;5036212;28;20059;-83
2022/03/19 04:52:43;;;;;;;0.00;0.00;;;3.70;99.90;;;;;;5036130;28;20036;-83
2022/03/19 04:55:10;;;;;;;0.30;0.30;;;3.70;99.90;;;;;;5052473;28;20041;-83
2022/03/19 04:57:37;;;;;;;0.00;0.00;;;3.60;99.90;;;;;;5035899;28;20126;-83
2022/03/19 05:00:05;;;;;;;0.73;0.45;;;3.60;99.90;;;;;;5052586;28;20051;-83
2022/03/19 05:02:31;;;;;;;0.00;0.00;;;3.60;99.90;;;;;;5052150;28;20044;-83
2022/03/19 05:04:56;;;;;;;0.00;0.00;;;3.60;99.90;;;;;;5052507;28;20041;-83
2022/03/19 05:07:24;;;;;;;0.00;0.00;;;3.60;99.90;;;;;;5035994;28;20404;-83
2022/03/19 05:12:39;;;;;;;0.00;0.00;;;3.50;99.90;;;;;;5052357;28;20118;-83
2022/03/19 05:15:05;;;;;;;0.03;0.03;;;3.50;99.90;;;;;;5052457;28;20140;-83
2022/03/19 05:17:31;;;;;;;0.30;0.30;;;3.50;99.90;;;;;;5052550;28;20068;-83
2022/03/19 05:19:57;;;;;;;0.00;0.00;;;3.50;99.90;;;;;;5052319;28;20477;-83
2022/03/19 05:22:23;;;;;;;1.08;1.02;;;3.50;99.90;;;;;;5052322;28;20045;-83
2022/03/19 05:24:48;;;;;;;1.00;0.57;;;3.50;99.90;;;;;;5052311;28;20041;-83
2022/03/19 05:27:14;;;;;;;0.00;0.00;;;3.50;99.90;;;;;;5035569;28;20057;-83
2022/03/19 05:29:40;;;;;;;0.00;0.00;;;3.40;99.90;;;;;;5052185;28;20056;-83
2022/03/19 05:32:06;;;;;;;1.17;0.13;;;3.40;99.90;;;;;;5052220;28;20076;-85
2022/03/19 05:34:34;;;;;;;0.00;0.00;;;3.40;99.90;;;;;;5052295;28;20111;-83
2022/03/19 05:37:03;;;;;;;0.10;0.00;;;3.40;99.90;;;;;;5035980;28;20059;-83
2022/03/19 05:39:31;;;;;;;0.65;0.65;;;3.40;99.90;;;;;;5035602;28;20136;-83
2022/03/19 05:41:56;;;;;;;0.17;0.17;;;3.40;99.90;;;;;;5051993;28;20045;-83
2022/03/19 05:44:22;;;;;;;0.00;0.00;;;3.40;99.90;;;;;;5035067;28;20500;-83
2022/03/19 05:46:48;;;;;;;4.47;0.10;;;3.50;99.90;;;;;;5051826;28;20052;-83
2022/03/19 05:49:14;;;;;;;0.08;0.03;;;3.50;99.90;;;;;;5052144;28;20049;-84
2022/03/19 05:51:40;;;;;;;0.00;0.00;;;3.60;99.90;;;;;;5035541;28;20037;-84
2022/03/19 05:54:06;;;;;;;0.00;0.00;;;3.60;99.90;;;;;;5035460;28;20083;-84
2022/03/19 05:56:32;;;;;;;12.50;1.17;;;3.60;99.90;;;;;;5038011;28;20520;-83
2022/03/19 05:58:58;;;;;;;0.00;0.00;;;3.70;99.90;;;;;;5055415;28;20673;-83
2022/03/19 06:01:28;;;;;;;0.85;0.20;;;3.70;99.90;;;;;;5055638;28;20076;-84
2022/03/19 06:03:54;;;;;;;0.52;0.47;;;3.70;99.90;;;;;;5046803;28;20123;-84
2022/03/19 06:06:20;;;;;;;0.00;0.00;;;3.70;99.90;;;;;;5044034;28;20053;-85
2022/03/19 06:08:46;;;;;;;0.00;0.00;;;3.70;99.90;;;;;;5038959;28;20060;-83
2022/03/19 06:11:12;;;;;;;0.00;0.00;;;3.80;99.90;;;;;;5055338;28;20045;-83
2022/03/19 06:13:37;;;;;;;0.00;0.00;;;3.80;99.90;;;;;;5038905;28;20461;-83
2022/03/19 06:16:03;;;;;;;0.00;0.00;;;3.80;99.90;;;;;;5038666;28;20047;-84
2022/03/19 06:18:29;;;;;;;0.00;0.00;;;4.00;99.90;;;;;;5038953;28;20056;-84
2022/03/19 06:20:56;;;;;;;0.00;0.00;;;4.10;99.90;;;;;;5038537;28;20061;-84
2022/03/19 06:23:22;;;;;;;0.00;0.00;;;4.10;99.90;;;;;;5055058;28;20053;-84
2022/03/19 06:25:49;;;;;;;0.00;0.00;;;4.10;99.90;;;;;;5055125;28;20044;-84
2022/03/19 06:28:15;;;;;;;0.88;0.80;;;4.10;99.90;;;;;;5055308;28;20102;-83
2022/03/19 06:30:41;;;;;;;2.40;0.30;;;4.10;99.90;;;;;;5055146;28;20041;-84
2022/03/19 06:33:07;;;;;;;0.00;0.00;;;4.20;99.90;;;;;;5055175;28;20048;-83
2022/03/19 06:38:25;;;;;;;0.52;0.52;;;4.30;99.90;;;;;;5055241;28;20096;-84
2022/03/19 06:40:50;;;;;;;0.00;0.00;;;4.50;99.90;;;;;;5038380;28;20501;-83
2022/03/19 06:43:16;;;;;;;0.50;0.50;;;4.60;99.90;;;;;;5054648;28;20056;-83
2022/03/19 06:45:42;;;;;;;0.00;0.00;;;4.70;99.90;;;;;;5054904;28;20431;-84
2022/03/19 06:48:08;;;;;;;0.13;0.13;;;4.80;99.90;;;;;;5038390;28;20056;-84
2022/03/19 06:50:33;;;;;;;0.00;0.00;;;5.00;99.90;;;;;;5054951;28;20187;-83
2022/03/19 06:52:59;;;;;;;0.08;0.00;;;5.20;99.90;;;;;;5038360;28;20064;-83
2022/03/19 06:55:24;;;;;;;0.00;0.00;;;5.40;99.90;;;;;;5054732;28;20102;-83
2022/03/19 06:57:50;;;;;;;0.17;0.17;;;5.60;99.90;;;;;;5054649;28;20077;-83
2022/03/19 07:00:16;;;;;;;0.63;0.15;;;5.90;99.90;;;;;;5054751;28;20089;-83
2022/03/19 07:02:50;;;;;;;0.00;0.00;;;6.40;99.90;;;;;;5037843;28;20088;-83
2022/03/19 07:05:26;;;;;;;0.00;0.00;;;6.90;99.90;;;;;;5054717;28;20055;-84
2022/03/19 07:07:53;;;;;;;0.20;0.20;;;7.40;99.90;;;;;;5037750;28;20057;-83
2022/03/19 07:10:19;;;;;;;0.10;0.10;;;8.00;99.90;;;;;;5054310;28;20041;-83
2022/03/19 07:12:50;;;;;;;4.97;0.43;;;8.70;99.90;;;;;;5054224;28;20049;-84
2022/03/19 07:15:19;;;;;;;0.05;0.05;;;9.50;99.90;;;;;;5037812;28;20055;-83
2022/03/19 07:17:45;;;;;;;0.40;0.10;;;10.10;99.90;;;;;;5054094;28;20049;-83
2022/03/19 07:20:12;;;;;;;0.13;0.00;;;10.80;99.90;;;;;;5037455;28;20083;-83
2022/03/19 07:23:06;;;;;;;0.10;0.10;;;11.40;99.90;;;;;;5054010;28;20584;-83
2022/03/19 07:25:40;;;;;;;0.00;0.00;;;11.10;97.50;;;;;;5054277;28;20045;-83
2022/03/19 07:28:12;;;;;;;0.00;0.00;;;10.80;98.10;;;;;;5037362;28;20400;-83
2022/03/19 07:30:38;;;;;;;1.00;0.65;;;10.90;98.30;;;;;;5053913;28;20484;-83
2022/03/19 07:33:04;;;;;;;0.25;0.25;;;11.10;97.10;;;;;;5053649;28;20531;-84
2022/03/19 07:35:30;;;;;;;1.65;0.95;;;11.60;96.90;;;;;;5054084;28;20044;-84
2022/03/19 07:38:00;;;;;;;0.40;0.40;;;11.80;94.90;;;;;;5053951;28;20037;-83
2022/03/19 07:43:13;;;;;;;0.10;0.10;;;12.30;92.90;;;;;;5053984;28;20048;-84
2022/03/19 07:45:40;;;;;;;0.00;0.00;;;12.00;92.60;;;;;;5053312;28;20067;-83
2022/03/19 07:48:06;;;;;;;1.02;0.43;;;11.90;92.80;;;;;;5053548;28;20048;-83
2022/03/19 07:50:32;;;;;;;0.57;0.57;;;11.90;92.70;;;;;;5053506;28;20072;-83
2022/03/19 07:52:58;;;;;;;0.30;0.00;;;11.90;92.20;;;;;;5036875;28;20501;-83
2022/03/19 07:55:25;;;;;;;0.20;0.00;;;11.80;91.80;;;;;;5053408;28;20049;-83
2022/03/19 07:57:51;;;;;;;0.38;0.10;;;11.60;91.20;;;;;;5053352;28;20476;-83
2022/03/19 08:00:17;;;;;;;0.38;0.38;;;11.50;91.10;;;;;;5036756;28;20041;-84
2022/03/19 08:02:43;;;;;;;1.65;0.52;;;11.50;91.50;;;;;;5053275;28;20128;-83
2022/03/19 08:05:11;;;;;;;7.03;0.88;;;11.40;90.50;;;;;;5036565;28;20060;-83
2022/03/19 08:07:37;;;;;;;0.75;0.10;;;11.30;91.30;;;;;;5036241;28;20416;-83
2022/03/19 08:10:08;;;;;;;6.75;0.52;;;10.90;91.50;;;;;;5036565;28;20127;-83
2022/03/19 08:12:35;;;;;;;1.17;0.73;;;10.50;92.20;;;;;;5053698;28;20540;-83
2022/03/19 08:15:06;;;;;;;0.00;0.00;;;10.30;92.60;;;;;;5036524;28;20424;-83
2022/03/19 08:17:32;;;;;;;0.10;0.10;;;9.90;93.10;;;;;;5053065;28;20094;-83
2022/03/19 08:19:59;;;;;;;0.40;0.25;;;9.70;93.60;;;;;;5035362;28;20106;-83
2022/03/19 08:22:28;;;;;;;0.40;0.08;;;9.50;94.30;;;;;;5052660;28;20048;-83
2022/03/19 08:24:54;;;;;;;0.00;0.00;;;9.60;94.80;;;;;;5053197;28;20083;-83
2022/03/19 08:27:22;;;;;;;2.25;0.57;;;9.80;94.40;;;;;;5053090;28;20154;-83
2022/03/19 08:29:48;;;;;;;0.00;0.00;;;10.00;94.10;;;;;;5053276;28;20045;-83
2022/03/19 08:32:13;;;;;;;0.65;0.65;;;10.00;93.60;;;;;;5052392;28;20438;-83
2022/03/19 08:34:39;;;;;;;0.10;0.10;;;9.70;92.80;;;;;;5052494;28;20064;-84
2022/03/19 08:37:05;;;;;;;0.20;0.20;;;9.70;93.30;;;;;;5052345;28;20084;-83
2022/03/19 08:42:16;;;;;;;1.88;0.60;;;9.70;93.30;;;;;;5052652;28;20045;-84
2022/03/19 08:44:42;;;;;;;0.10;0.10;;;9.90;93.40;;;;;;5036147;28;20413;-83
2022/03/19 08:47:08;;;;;;;0.00;0.00;;;9.90;93.10;;;;;;5036047;28;20156;-84
2022/03/19 08:49:34;;;;;;;0.00;0.00;;;9.80;92.10;;;;;;5052169;28;20555;-83
2022/03/19 08:51:59;;;;;;;0.55;0.00;;;9.90;92.40;;;;;;5052722;28;20471;-84
2022/03/19 08:54:25;;;;;;;0.10;0.05;;;9.90;91.70;;;;;;5052571;28;20053;-84
2022/03/19 08:56:52;;;;;;;0.10;0.10;;;10.00;92.00;;;;;;5052220;28;20098;-84
2022/03/19 08:59:20;;;;;;;0.00;0.00;;;10.00;91.40;;;;;;5052227;28;20135;-84
2022/03/19 09:01:48;;;;;;;0.03;0.03;;;10.30;91.10;;;;;;5052323;28;20480;-84
2022/03/19 09:04:14;;;;;;;0.00;0.00;;;10.50;91.30;;;;;;5052343;28;20099;-84
2022/03/19 09:06:41;;;;;;;0.35;0.35;;;10.70;90.70;;;;;;5035982;28;20052;-84
2022/03/19 09:09:07;;;;;;;0.00;0.00;;;10.90;90.70;;;;;;5052441;28;20045;-83
2022/03/19 09:11:35;;;;;;;0.00;0.00;;;10.90;89.70;;;;;;5052070;28;20041;-84
2022/03/19 09:14:03;;;;;;;0.00;0.00;;;10.90;85.70;;;;;;5052363;28;20045;-84
2022/03/19 09:16:29;;;;;;;0.10;0.10;;;11.00;86.30;;;;;;5035623;28;20045;-84
2022/03/19 09:18:56;;;;;;;0.00;0.00;;;11.20;86.40;;;;;;5035428;28;20503;-84
2022/03/19 09:21:22;;;;;;;1.08;0.45;;;11.30;86.90;;;;;;5051586;28;20195;-84
2022/03/19 09:23:50;;;;;;;0.00;0.00;;;11.40;84.40;;;;;;5052361;28;20131;-84
2022/03/19 09:26:17;;;;;;;0.88;0.30;;;11.40;81.60;;;;;;5052528;28;20485;-85
2022/03/19 09:28:44;;;;;;;0.00;0.00;;;11.40;81.60;;;;;;5036234;28;20174;-84
2022/03/19 09:31:09;;;;;;;0.60;0.22;;;11.60;82.60;;;;;;5037927;28;20082;-84
2022/03/19 09:33:35;;;;;;;0.00;0.00;;;11.60;80.20;;;;;;5039422;28;20135;-84
2022/03/19 09:36:01;;;;;;;0.25;0.22;;;11.50;81.10;;;;;;5055991;28;20040;-84
2022/03/19 09:38:28;;;;;;;0.20;0.20;;;11.60;81.80;;;;;;5055461;28;20144;-84
2022/03/19 09:40:55;;;;;;;0.75;0.35;;;11.90;80.60;;;;;;5055554;28;20087;-84
2022/03/19 09:43:25;;;;;;;0.28;0.28;;;11.90;79.80;;;;;;5038767;28;20412;-84
2022/03/19 09:45:51;;;;;;;4.03;1.25;;;12.00;79.60;;;;;;5038485;28;20059;-84
2022/03/19 09:48:17;;;;;;;0.00;0.00;;;12.20;78.70;;;;;;5039080;28;20065;-84
2022/03/19 09:50:43;;;;;;;0.38;0.30;;;12.30;76.50;;;;;;5055873;28;20057;-84
2022/03/19 09:53:09;;;;;;;0.17;0.17;;;12.20;75.70;;;;;;5055947;28;20060;-84
2022/03/19 09:55:39;;;;;;;0.00;0.00;;;12.30;75.80;;;;;;5039328;28;20061;-84
2022/03/19 09:58:05;;;;;;;0.00;0.00;;;12.20;75.20;;;;;;5039150;28;20060;-84
2022/03/19 10:00:31;;;;;;;0.00;0.00;;;12.20;75.80;;;;;;5055191;28;20078;-84
2022/03/19 10:03:06;;;;;;;0.35;0.35;;;12.50;75.80;;;;;;5055423;28;20041;-84
2022/03/19 10:11:09;;;;;;;0.03;0.00;;;12.80;74.60;;;;;;5055251;28;20049;-84
2022/03/19 10:13:42;;;;;;;0.30;0.17;;;13.30;76.30;;;;;;5055471;28;20126;-84
2022/03/19 10:16:08;;;;;;;0.00;0.00;;;13.40;75.10;;;;;;5055448;28;20041;-83
2022/03/19 10:18:33;;;;;;;0.75;0.30;;;13.60;73.60;;;;;;5055360;28;20091;-84
2022/03/19 10:21:02;;;;;;;0.10;0.08;;;13.30;71.70;;;;;;5055383;28;20076;-83
2022/03/19 10:23:36;;;;;;;0.05;0.05;;;13.50;71.60;;;;;;5054982;28;20041;-84
2022/03/19 10:26:03;;;;;;;0.17;0.17;;;13.20;69.10;;;;;;5055158;28;20041;-84
2022/03/19 10:28:30;;;;;;;0.00;0.00;;;13.40;70.30;;;;;;5055118;28;20068;-85
2022/03/19 10:30:56;;;;;;;0.00;0.00;;;13.40;70.30;;;;;;5055115;28;20072;-86
2022/03/19 10:33:30;;;;;;;0.00;0.00;;;13.40;69.10;;;;;;5055191;28;20045;-84
2022/03/19 10:36:10;;;;;;;0.00;0.00;;;13.50;69.40;;;;;;5038219;28;20135;-84
2022/03/19 10:38:42;;;;;;;0.00;0.00;;;13.70;68.30;;;;;;5054802;28;20056;-85
2022/03/19 10:41:07;;;;;;;0.00;0.00;;;13.70;66.50;;;;;;5038140;28;20045;-85
2022/03/19 10:43:34;;;;;;;0.00;0.00;;;14.00;68.50;;;;;;5037380;28;20053;-84
2022/03/19 10:46:02;;;;;;;0.00;0.00;;;13.80;66.30;;;;;;5054611;28;20562;-84
2022/03/19 10:48:29;;;;;;;0.00;0.00;;;13.80;66.90;;;;;;5038422;28;20068;-84
2022/03/19 10:50:55;;;;;;;0.00;0.00;;;13.70;64.10;;;;;;5055018;28;20049;-84
2022/03/19 10:53:23;;;;;;;0.47;0.35;;;13.60;63.10;;;;;;5054873;28;20057;-84
2022/03/19 10:55:49;;;;;;;0.00;0.00;;;13.60;63.70;;;;;;5054733;28;20041;-84
2022/03/19 10:58:15;;;;;;;0.00;0.00;;;13.80;64.80;;;;;;5054697;28;20416;-84
2022/03/19 11:00:41;;;;;;;0.00;0.00;;;13.80;63.00;;;;;;5054470;28;20135;-84
2022/03/19 11:03:14;;;;;;;3.53;0.73;;;13.90;60.50;;;;;;5054255;28;20494;-84
2022/03/19 11:05:41;;;;;;;0.00;0.00;;;14.10;60.80;;;;;;5054731;28;20052;-84
2022/03/19 11:08:07;;;;;;;0.68;0.63;;;14.10;59.30;;;;;;5038020;28;20049;-84
2022/03/19 11:10:35;;;;;;;0.00;0.00;;;14.20;58.00;;;;;;5037524;28;20124;-84
2022/03/19 11:13:03;;;;;;;0.00;0.00;;;14.30;59.60;;;;;;5053998;28;20512;-84
2022/03/19 11:15:35;;;;;;;1.10;0.30;;;14.20;58.20;;;;;;5037638;28;20059;-83
2022/03/19 11:18:07;;;;;;;0.20;0.20;;;14.20;59.80;;;;;;5037670;28;20049;-83
2022/03/19 11:20:33;;;;;;;3.83;1.08;;;14.20;59.70;;;;;;5037598;28;20378;-83
2022/03/19 11:23:01;;;;;;;0.00;0.00;;;14.20;57.70;;;;;;5054182;28;20048;-85
2022/03/19 11:25:26;;;;;;;0.10;0.10;;;14.20;57.80;;;;;;5037429;28;20063;-84
2022/03/19 11:27:53;;;;;;;0.68;0.52;;;14.20;56.50;;;;;;5053917;28;20048;-83
2022/03/19 11:30:24;;;;;;;0.00;0.00;;;14.40;56.60;;;;;;5038073;28;20151;-84
2022/03/19 11:33:07;;;;;;;0.22;0.20;;;14.30;55.60;;;;;;5054239;28;20037;-83
2022/03/19 11:35:35;;;;;;;0.00;0.00;;;14.10;53.80;;;;;;5053954;28;20037;-84
2022/03/19 11:38:11;;;;;;;8.15;0.90;;;14.30;55.30;;;;;;5054013;28;20051;-83
2022/03/19 11:40:38;;;;;;;0.00;0.00;;;14.30;53.40;;;;;;5037389;28;20459;-83
2022/03/19 11:43:05;;;;;;;0.00;0.00;;;14.40;54.60;;;;;;5053425;28;20047;-82
2022/03/19 11:45:38;;;;;;;0.00;0.00;;;14.50;53.10;;;;;;5053907;28;20061;-83
2022/03/19 11:48:24;;;;;;;0.00;0.00;;;14.50;52.10;;;;;;5037000;28;20049;-82
2022/03/19 11:50:51;;;;;;;0.00;0.00;;;14.60;52.20;;;;;;5053567;28;20053;-82
2022/03/19 11:53:17;;;;;;;0.00;0.00;;;14.60;52.00;;;;;;5037440;28;20045;-82
2022/03/19 11:55:43;;;;;;;0.00;0.00;;;14.50;52.80;;;;;;5036857;28;20562;-82
2022/03/19 11:58:12;;;;;;;0.20;0.00;;;14.70;53.00;;;;;;5053391;28;20060;-82
2022/03/19 12:00:38;;;;;;;0.00;0.00;;;14.70;52.70;;;;;;5053510;28;20056;-83
2022/03/19 12:03:24;;;;;;;0.20;0.20;;;14.80;53.00;;;;;;5036945;28;20385;-83
2022/03/19 12:05:51;;;;;;;0.00;0.00;;;15.10;53.50;;;;;;5037496;28;20049;-83
2022/03/19 12:08:23;;;;;;;0.00;0.00;;;14.90;49.60;;;;;;5053403;28;20045;-82
2022/03/19 12:10:58;;;;;;;0.00;0.00;;;14.80;48.70;;;;;;5053434;28;20080;-83
2022/03/19 12:13:26;;;;;;;0.00;0.00;;;14.80;49.10;;;;;;5053484;28;20057;-82
2022/03/19 12:15:53;;;;;;;0.98;0.10;;;14.90;49.40;;;;;;5053097;28;20405;-82
2022/03/19 12:18:23;;;;;;;0.00;0.00;;;14.80;47.80;;;;;;5053235;28;20095;-82
2022/03/19 12:20:50;;;;;;;0.00;0.00;;;14.90;48.50;;;;;;5052971;28;20041;-82
2022/03/19 12:23:17;;;;;;;0.00;0.00;;;14.80;48.00;;;;;;5052893;28;20068;-83
2022/03/19 12:26:04;;;;;;;0.00;0.00;;;14.90;48.50;;;;;;5036412;28;20386;-82
2022/03/19 12:28:31;;;;;;;0.00;0.00;;;14.90;47.30;;;;;;5051601;28;20037;-82
2022/03/19 12:31:07;;;;;;;0.00;0.00;;;15.00;48.30;;;;;;5050768;28;20087;-82
2022/03/19 12:33:34;;;;;;;0.00;0.00;;;15.30;48.80;;;;;;5052954;28;20049;-83
2022/03/19 12:36:15;;;;;;;0.00;0.00;;;15.30;48.60;;;;;;5036126;28;20056;-82
2022/03/19 12:38:41;;;;;;;0.00;0.00;;;15.50;48.80;;;;;;5036048;28;20144;-82
2022/03/19 12:41:29;;;;;;;0.00;0.00;;;15.50;47.70;;;;;;5036283;28;20064;-83
2022/03/19 12:44:00;;;;;;;0.10;0.10;;;15.60;48.60;;;;;;5053028;28;20045;-82
2022/03/19 12:46:31;;;;;;;0.00;0.00;;;15.60;47.80;;;;;;5052900;28;20425;-83
2022/03/19 12:49:14;;;;;;;0.00;0.00;;;15.40;47.00;;;;;;5052674;28;20055;-82
2022/03/19 12:51:45;;;;;;;0.00;0.00;;;15.20;48.10;;;;;;5052719;28;20053;-82
2022/03/19 12:54:30;;;;;;;0.10;0.10;;;15.50;49.90;;;;;;5052870;28;20059;-82
2022/03/19 12:57:10;;;;;;;0.17;0.17;;;15.50;47.40;;;;;;5052667;28;20045;-83
2022/03/19 12:59:36;;;;;;;0.43;0.43;;;15.30;47.40;;;;;;5035709;28;20171;-82
2022/03/19 13:02:02;;;;;;;1.95;0.63;;;15.10;47.00;;;;;;5052656;28;20502;-82
2022/03/19 13:04:30;;;;;;;0.00;0.00;;;15.10;49.40;;;;;;5051993;28;20045;-82
2022/03/19 13:06:57;;;;;;;0.00;0.00;;;15.20;48.40;;;;;;5052341;28;20441;-82
2022/03/19 13:09:36;;;;;;;1.27;0.45;;;15.10;47.70;;;;;;5035478;28;20049;-81
2022/03/19 13:12:07;;;;;;;0.00;0.00;;;14.90;48.30;;;;;;5052236;28;20183;-81
2022/03/19 13:14:34;;;;;;;0.00;0.00;;;14.80;47.60;;;;;;5052308;28;20048;-82
2022/03/19 13:17:00;;;;;;;0.00;0.00;;;14.70;48.10;;;;;;5052225;28;20045;-82